sensor_id;sensor_type;location;lat;lon;timestamp;P1;durP1;ratioP1;P2;durP2;ratioP2
82940;SDS011;72715;48.396;-4.472;2024-01-10T00:01:31;18.50;;;11.80;;
82940;SDS011;72715;48.396;-4.472;2024-01-10T00:03:56;19.83;;;12.23;;
82940;SDS011;72715;48.396;-4.472;2024-01-10T00:06:22;20.40;;;12.77;;
82940;SDS011;72715;48.396;-4.472;2024-01-10T00:08:48;13.82;;;11.02;;
82940;SDS011;72715;48.396;-4.472;2024-01-10T00:11:14;21.67;;;12.45;;
82940;SDS011;72715;48.396;-4.472;2024-01-10T00:13:39;19.80;;;13.00;;
82940;SDS011;72715;48.396;-4.472;2024-01-10T00:16:05;24.38;;;14.57;;
82940;SDS011;72715;48.396;-4.472;2024-01-10T00:18:31;19.40;;;12.82;;
82940;SDS011;72715;48.396;-4.472;2024-01-10T00:20:56;15.95;;;11.63;;
82940;SDS011;72715;48.396;-4.472;2024-01-10T00:23:22;16.65;;;10.10;;
82940;SDS011;72715;48.396;-4.472;2024-01-10T00:25:47;21.52;;;12.65;;
82940;SDS011;72715;48.396;-4.472;2024-01-10T00:28:13;18.90;;;11.50;;
82940;SDS011;72715;48.396;-4.472;2024-01-10T00:30:39;15.15;;;11.48;;
82940;SDS011;72715;48.396;-4.472;2024-01-10T00:33:04;20.15;;;13.68;;
82940;SDS011;72715;48.396;-4.472;2024-01-10T00:35:30;17.52;;;11.10;;
82940;SDS011;72715;48.396;-4.472;2024-01-10T00:37:56;20.73;;;12.00;;
82940;SDS011;72715;48.396;-4.472;2024-01-10T00:40:22;19.38;;;12.40;;
82940;SDS011;72715;48.396;-4.472;2024-01-10T00:42:48;19.70;;;13.27;;
82940;SDS011;72715;48.396;-4.472;2024-01-10T00:45:13;22.05;;;15.55;;
82940;SDS011;72715;48.396;-4.472;2024-01-10T00:47:39;24.00;;;16.02;;
82940;SDS011;72715;48.396;-4.472;2024-01-10T00:50:05;27.63;;;17.02;;
82940;SDS011;72715;48.396;-4.472;2024-01-10T00:52:30;20.60;;;13.43;;
82940;SDS011;72715;48.396;-4.472;2024-01-10T00:54:56;23.48;;;12.48;;
82940;SDS011;72715;48.396;-4.472;2024-01-10T00:57:22;18.73;;;14.15;;
82940;SDS011;72715;48.396;-4.472;2024-01-10T00:59:48;21.88;;;12.35;;
82940;SDS011;72715;48.396;-4.472;2024-01-10T01:02:13;17.65;;;10.45;;
82940;SDS011;72715;48.396;-4.472;2024-01-10T01:04:38;16.05;;;11.95;;
82940;SDS011;72715;48.396;-4.472;2024-01-10T01:07:04;20.77;;;13.38;;
82940;SDS011;72715;48.396;-4.472;2024-01-10T01:09:29;19.17;;;10.95;;
82940;SDS011;72715;48.396;-4.472;2024-01-10T01:11:55;17.60;;;11.02;;
82940;SDS011;72715;48.396;-4.472;2024-01-10T01:14:20;22.42;;;13.15;;
82940;SDS011;72715;48.396;-4.472;2024-01-10T01:16:45;16.77;;;12.48;;
82940;SDS011;72715;48.396;-4.472;2024-01-10T01:19:11;18.50;;;12.27;;
82940;SDS011;72715;48.396;-4.472;2024-01-10T01:21:36;18.83;;;12.68;;
82940;SDS011;72715;48.396;-4.472;2024-01-10T01:24:01;18.95;;;12.73;;
82940;SDS011;72715;48.396;-4.472;2024-01-10T01:26:28;16.63;;;10.80;;
82940;SDS011;72715;48.396;-4.472;2024-01-10T01:28:53;20.10;;;15.00;;
82940;SDS011;72715;48.396;-4.472;2024-01-10T01:31:19;16.67;;;11.93;;
82940;SDS011;72715;48.396;-4.472;2024-01-10T01:33:44;17.80;;;11.55;;
82940;SDS011;72715;48.396;-4.472;2024-01-10T01:36:10;16.17;;;11.13;;
82940;SDS011;72715;48.396;-4.472;2024-01-10T01:38:35;19.70;;;11.95;;
82940;SDS011;72715;48.396;-4.472;2024-01-10T01:41:01;24.13;;;14.43;;
82940;SDS011;72715;48.396;-4.472;2024-01-10T01:43:27;21.65;;;13.18;;
82940;SDS011;72715;48.396;-4.472;2024-01-10T01:45:54;23.13;;;13.38;;
82940;SDS011;72715;48.396;-4.472;2024-01-10T01:48:21;17.95;;;12.52;;
82940;SDS011;72715;48.396;-4.472;2024-01-10T01:50:48;23.38;;;13.13;;
82940;SDS011;72715;48.396;-4.472;2024-01-10T01:53:15;20.00;;;13.82;;
82940;SDS011;72715;48.396;-4.472;2024-01-10T01:55:43;22.65;;;13.85;;
82940;SDS011;72715;48.396;-4.472;2024-01-10T01:58:09;19.48;;;13.23;;
82940;SDS011;72715;48.396;-4.472;2024-01-10T02:00:34;21.85;;;12.80;;
82940;SDS011;72715;48.396;-4.472;2024-01-10T02:03:00;21.98;;;15.30;;
82940;SDS011;72715;48.396;-4.472;2024-01-10T02:05:26;18.92;;;10.82;;
82940;SDS011;72715;48.396;-4.472;2024-01-10T02:07:52;20.65;;;13.93;;
82940;SDS011;72715;48.396;-4.472;2024-01-10T02:10:18;17.70;;;13.25;;
82940;SDS011;72715;48.396;-4.472;2024-01-10T02:12:44;17.98;;;12.90;;
82940;SDS011;72715;48.396;-4.472;2024-01-10T02:15:10;20.35;;;15.43;;
82940;SDS011;72715;48.396;-4.472;2024-01-10T02:17:35;19.67;;;12.25;;
82940;SDS011;72715;48.396;-4.472;2024-01-10T02:20:14;16.15;;;9.40;;
82940;SDS011;72715;48.396;-4.472;2024-01-10T02:22:43;15.75;;;12.05;;
82940;SDS011;72715;48.396;-4.472;2024-01-10T02:25:09;25.17;;;16.55;;
82940;SDS011;72715;48.396;-4.472;2024-01-10T02:27:38;16.95;;;10.68;;
82940;SDS011;72715;48.396;-4.472;2024-01-10T02:30:05;18.90;;;13.38;;
82940;SDS011;72715;48.396;-4.472;2024-01-10T02:32:31;16.45;;;10.50;;
82940;SDS011;72715;48.396;-4.472;2024-01-10T02:34:57;18.95;;;13.00;;
82940;SDS011;72715;48.396;-4.472;2024-01-10T02:37:23;14.48;;;11.02;;
82940;SDS011;72715;48.396;-4.472;2024-01-10T02:39:48;16.90;;;13.65;;
82940;SDS011;72715;48.396;-4.472;2024-01-10T02:42:14;16.67;;;12.65;;
82940;SDS011;72715;48.396;-4.472;2024-01-10T02:44:39;17.38;;;12.52;;
82940;SDS011;72715;48.396;-4.472;2024-01-10T02:47:05;19.27;;;11.77;;
82940;SDS011;72715;48.396;-4.472;2024-01-10T02:49:31;22.25;;;12.75;;
82940;SDS011;72715;48.396;-4.472;2024-01-10T02:51:56;18.40;;;13.55;;
82940;SDS011;72715;48.396;-4.472;2024-01-10T02:54:21;18.92;;;11.07;;
82940;SDS011;72715;48.396;-4.472;2024-01-10T02:56:47;22.02;;;12.43;;
82940;SDS011;72715;48.396;-4.472;2024-01-10T02:59:12;15.30;;;10.73;;
82940;SDS011;72715;48.396;-4.472;2024-01-10T03:01:37;18.77;;;12.60;;
82940;SDS011;72715;48.396;-4.472;2024-01-10T03:04:03;16.48;;;10.98;;
82940;SDS011;72715;48.396;-4.472;2024-01-10T03:06:28;19.83;;;12.65;;
82940;SDS011;72715;48.396;-4.472;2024-01-10T03:08:54;15.80;;;9.80;;
82940;SDS011;72715;48.396;-4.472;2024-01-10T03:11:20;12.48;;;10.93;;
82940;SDS011;72715;48.396;-4.472;2024-01-10T03:13:45;20.02;;;10.00;;
82940;SDS011;72715;48.396;-4.472;2024-01-10T03:16:11;20.50;;;11.00;;
82940;SDS011;72715;48.396;-4.472;2024-01-10T03:18:37;16.48;;;11.50;;
82940;SDS011;72715;48.396;-4.472;2024-01-10T03:21:02;16.17;;;11.13;;
82940;SDS011;72715;48.396;-4.472;2024-01-10T03:23:28;21.67;;;10.93;;
82940;SDS011;72715;48.396;-4.472;2024-01-10T03:25:53;24.23;;;13.07;;
82940;SDS011;72715;48.396;-4.472;2024-01-10T03:28:18;18.33;;;12.52;;
82940;SDS011;72715;48.396;-4.472;2024-01-10T03:30:44;23.52;;;14.57;;
82940;SDS011;72715;48.396;-4.472;2024-01-10T03:33:10;21.02;;;13.52;;
82940;SDS011;72715;48.396;-4.472;2024-01-10T03:35:35;18.05;;;10.98;;
82940;SDS011;72715;48.396;-4.472;2024-01-10T03:38:00;15.93;;;11.70;;
82940;SDS011;72715;48.396;-4.472;2024-01-10T03:40:26;17.70;;;12.88;;
82940;SDS011;72715;48.396;-4.472;2024-01-10T03:42:51;19.60;;;11.00;;
82940;SDS011;72715;48.396;-4.472;2024-01-10T03:45:17;21.10;;;14.45;;
82940;SDS011;72715;48.396;-4.472;2024-01-10T03:47:45;15.63;;;11.95;;
82940;SDS011;72715;48.396;-4.472;2024-01-10T03:50:14;16.50;;;10.63;;
82940;SDS011;72715;48.396;-4.472;2024-01-10T03:52:44;21.33;;;13.30;;
82940;SDS011;72715;48.396;-4.472;2024-01-10T03:55:09;22.60;;;14.10;;
82940;SDS011;72715;48.396;-4.472;2024-01-10T03:57:35;20.52;;;11.35;;
82940;SDS011;72715;48.396;-4.472;2024-01-10T04:00:01;19.30;;;12.95;;
82940;SDS011;72715;48.396;-4.472;2024-01-10T04:02:26;25.73;;;14.48;;
82940;SDS011;72715;48.396;-4.472;2024-01-10T04:04:53;21.23;;;12.90;;
82940;SDS011;72715;48.396;-4.472;2024-01-10T04:07:18;26.05;;;16.10;;
82940;SDS011;72715;48.396;-4.472;2024-01-10T04:09:44;21.60;;;13.00;;
82940;SDS011;72715;48.396;-4.472;2024-01-10T04:12:09;23.13;;;14.25;;
82940;SDS011;72715;48.396;-4.472;2024-01-10T04:14:34;20.08;;;13.32;;
82940;SDS011;72715;48.396;-4.472;2024-01-10T04:17:00;21.33;;;14.02;;
82940;SDS011;72715;48.396;-4.472;2024-01-10T04:19:26;19.95;;;15.35;;
82940;SDS011;72715;48.396;-4.472;2024-01-10T04:21:52;22.73;;;13.63;;
82940;SDS011;72715;48.396;-4.472;2024-01-10T04:24:17;22.65;;;11.50;;
82940;SDS011;72715;48.396;-4.472;2024-01-10T04:26:42;18.38;;;12.15;;
82940;SDS011;72715;48.396;-4.472;2024-01-10T04:29:08;23.00;;;15.38;;
82940;SDS011;72715;48.396;-4.472;2024-01-10T04:31:33;24.52;;;14.30;;
82940;SDS011;72715;48.396;-4.472;2024-01-10T04:34:00;23.35;;;13.73;;
82940;SDS011;72715;48.396;-4.472;2024-01-10T04:36:26;26.23;;;15.27;;
82940;SDS011;72715;48.396;-4.472;2024-01-10T04:38:51;13.85;;;9.57;;
82940;SDS011;72715;48.396;-4.472;2024-01-10T04:41:17;20.92;;;13.80;;
82940;SDS011;72715;48.396;-4.472;2024-01-10T04:43:42;20.20;;;12.40;;
82940;SDS011;72715;48.396;-4.472;2024-01-10T04:46:08;22.98;;;15.27;;
82940;SDS011;72715;48.396;-4.472;2024-01-10T04:48:35;19.45;;;11.05;;
82940;SDS011;72715;48.396;-4.472;2024-01-10T04:51:01;22.55;;;12.25;;
82940;SDS011;72715;48.396;-4.472;2024-01-10T04:53:26;23.77;;;16.75;;
82940;SDS011;72715;48.396;-4.472;2024-01-10T04:55:52;20.05;;;13.65;;
82940;SDS011;72715;48.396;-4.472;2024-01-10T04:58:17;19.98;;;13.07;;
82940;SDS011;72715;48.396;-4.472;2024-01-10T05:00:42;24.80;;;14.50;;
82940;SDS011;72715;48.396;-4.472;2024-01-10T05:03:08;20.85;;;14.55;;
82940;SDS011;72715;48.396;-4.472;2024-01-10T05:05:33;25.70;;;15.13;;
82940;SDS011;72715;48.396;-4.472;2024-01-10T05:07:59;25.40;;;12.65;;
82940;SDS011;72715;48.396;-4.472;2024-01-10T05:10:26;20.98;;;11.45;;
82940;SDS011;72715;48.396;-4.472;2024-01-10T05:12:51;20.20;;;13.10;;
82940;SDS011;72715;48.396;-4.472;2024-01-10T05:15:17;20.42;;;12.88;;
82940;SDS011;72715;48.396;-4.472;2024-01-10T05:17:42;21.48;;;13.95;;
82940;SDS011;72715;48.396;-4.472;2024-01-10T05:20:08;17.48;;;12.32;;
82940;SDS011;72715;48.396;-4.472;2024-01-10T05:22:34;25.92;;;14.77;;
82940;SDS011;72715;48.396;-4.472;2024-01-10T05:25:00;24.58;;;15.15;;
82940;SDS011;72715;48.396;-4.472;2024-01-10T05:27:25;19.85;;;13.07;;
82940;SDS011;72715;48.396;-4.472;2024-01-10T05:29:51;27.08;;;15.43;;
82940;SDS011;72715;48.396;-4.472;2024-01-10T05:32:17;23.85;;;14.82;;
82940;SDS011;72715;48.396;-4.472;2024-01-10T05:34:42;23.52;;;15.10;;
82940;SDS011;72715;48.396;-4.472;2024-01-10T05:37:07;26.15;;;15.00;;
82940;SDS011;72715;48.396;-4.472;2024-01-10T05:39:33;23.88;;;14.27;;
82940;SDS011;72715;48.396;-4.472;2024-01-10T05:41:58;24.85;;;13.35;;
82940;SDS011;72715;48.396;-4.472;2024-01-10T05:44:24;28.23;;;14.60;;
82940;SDS011;72715;48.396;-4.472;2024-01-10T05:46:49;26.48;;;16.17;;
82940;SDS011;72715;48.396;-4.472;2024-01-10T05:49:14;20.95;;;15.65;;
82940;SDS011;72715;48.396;-4.472;2024-01-10T05:51:40;21.02;;;14.05;;
82940;SDS011;72715;48.396;-4.472;2024-01-10T05:54:05;29.83;;;16.00;;
82940;SDS011;72715;48.396;-4.472;2024-01-10T05:56:32;24.83;;;15.25;;
82940;SDS011;72715;48.396;-4.472;2024-01-10T05:58:57;24.38;;;11.68;;
82940;SDS011;72715;48.396;-4.472;2024-01-10T06:01:22;28.55;;;15.48;;
82940;SDS011;72715;48.396;-4.472;2024-01-10T06:03:48;22.20;;;15.02;;
82940;SDS011;72715;48.396;-4.472;2024-01-10T06:06:13;24.63;;;15.38;;
82940;SDS011;72715;48.396;-4.472;2024-01-10T06:08:39;24.25;;;13.77;;
82940;SDS011;72715;48.396;-4.472;2024-01-10T06:11:04;25.77;;;14.20;;
82940;SDS011;72715;48.396;-4.472;2024-01-10T06:13:33;24.45;;;14.13;;
82940;SDS011;72715;48.396;-4.472;2024-01-10T06:15:59;25.42;;;15.02;;
82940;SDS011;72715;48.396;-4.472;2024-01-10T06:18:25;21.77;;;13.90;;
82940;SDS011;72715;48.396;-4.472;2024-01-10T06:20:50;27.73;;;14.70;;
82940;SDS011;72715;48.396;-4.472;2024-01-10T06:23:16;33.35;;;18.23;;
82940;SDS011;72715;48.396;-4.472;2024-01-10T06:25:42;20.58;;;14.10;;
82940;SDS011;72715;48.396;-4.472;2024-01-10T06:28:07;25.77;;;16.10;;
82940;SDS011;72715;48.396;-4.472;2024-01-10T06:30:33;20.40;;;13.10;;
82940;SDS011;72715;48.396;-4.472;2024-01-10T06:33:00;21.27;;;13.45;;
82940;SDS011;72715;48.396;-4.472;2024-01-10T06:35:25;27.83;;;13.70;;
82940;SDS011;72715;48.396;-4.472;2024-01-10T06:37:51;29.90;;;19.90;;
82940;SDS011;72715;48.396;-4.472;2024-01-10T06:40:16;23.95;;;15.52;;
82940;SDS011;72715;48.396;-4.472;2024-01-10T06:42:41;24.27;;;13.65;;
82940;SDS011;72715;48.396;-4.472;2024-01-10T06:45:07;23.30;;;13.75;;
82940;SDS011;72715;48.396;-4.472;2024-01-10T06:47:33;28.73;;;19.35;;
82940;SDS011;72715;48.396;-4.472;2024-01-10T06:49:59;22.92;;;13.70;;
82940;SDS011;72715;48.396;-4.472;2024-01-10T06:52:24;19.85;;;13.95;;
82940;SDS011;72715;48.396;-4.472;2024-01-10T06:54:49;24.27;;;17.13;;
82940;SDS011;72715;48.396;-4.472;2024-01-10T06:57:15;27.17;;;13.90;;
82940;SDS011;72715;48.396;-4.472;2024-01-10T06:59:40;36.85;;;19.45;;
82940;SDS011;72715;48.396;-4.472;2024-01-10T07:02:06;25.00;;;16.63;;
82940;SDS011;72715;48.396;-4.472;2024-01-10T07:04:31;23.98;;;15.13;;
82940;SDS011;72715;48.396;-4.472;2024-01-10T07:06:57;24.98;;;15.90;;
82940;SDS011;72715;48.396;-4.472;2024-01-10T07:09:23;21.15;;;12.38;;
82940;SDS011;72715;48.396;-4.472;2024-01-10T07:11:48;23.10;;;14.50;;
82940;SDS011;72715;48.396;-4.472;2024-01-10T07:14:15;29.42;;;17.58;;
82940;SDS011;72715;48.396;-4.472;2024-01-10T07:16:40;31.77;;;15.38;;
82940;SDS011;72715;48.396;-4.472;2024-01-10T07:19:10;29.73;;;16.42;;
82940;SDS011;72715;48.396;-4.472;2024-01-10T07:21:39;33.40;;;20.63;;
82940;SDS011;72715;48.396;-4.472;2024-01-10T07:24:08;32.35;;;17.33;;
82940;SDS011;72715;48.396;-4.472;2024-01-10T07:26:34;18.92;;;14.20;;
82940;SDS011;72715;48.396;-4.472;2024-01-10T07:29:00;25.67;;;15.35;;
82940;SDS011;72715;48.396;-4.472;2024-01-10T07:31:27;27.65;;;16.58;;
82940;SDS011;72715;48.396;-4.472;2024-01-10T07:33:54;25.20;;;19.15;;
82940;SDS011;72715;48.396;-4.472;2024-01-10T07:36:20;32.30;;;18.85;;
82940;SDS011;72715;48.396;-4.472;2024-01-10T07:38:45;28.05;;;17.80;;
82940;SDS011;72715;48.396;-4.472;2024-01-10T07:41:11;30.65;;;18.55;;
82940;SDS011;72715;48.396;-4.472;2024-01-10T07:43:36;23.73;;;14.23;;
82940;SDS011;72715;48.396;-4.472;2024-01-10T07:46:02;27.58;;;16.85;;
82940;SDS011;72715;48.396;-4.472;2024-01-10T07:48:27;27.58;;;16.48;;
82940;SDS011;72715;48.396;-4.472;2024-01-10T07:50:52;29.00;;;18.20;;
82940;SDS011;72715;48.396;-4.472;2024-01-10T07:53:18;25.58;;;13.90;;
82940;SDS011;72715;48.396;-4.472;2024-01-10T07:55:43;34.90;;;16.70;;
82940;SDS011;72715;48.396;-4.472;2024-01-10T07:58:09;25.70;;;17.38;;
82940;SDS011;72715;48.396;-4.472;2024-01-10T08:00:34;34.05;;;22.38;;
82940;SDS011;72715;48.396;-4.472;2024-01-10T08:03:00;27.17;;;16.88;;
82940;SDS011;72715;48.396;-4.472;2024-01-10T08:05:26;24.63;;;13.88;;
82940;SDS011;72715;48.396;-4.472;2024-01-10T08:07:51;21.20;;;13.10;;
82940;SDS011;72715;48.396;-4.472;2024-01-10T08:10:17;23.63;;;14.00;;
82940;SDS011;72715;48.396;-4.472;2024-01-10T08:12:42;21.13;;;12.93;;
82940;SDS011;72715;48.396;-4.472;2024-01-10T08:15:09;27.77;;;14.95;;
82940;SDS011;72715;48.396;-4.472;2024-01-10T08:17:35;31.27;;;15.23;;
82940;SDS011;72715;48.396;-4.472;2024-01-10T08:20:02;24.13;;;14.00;;
82940;SDS011;72715;48.396;-4.472;2024-01-10T08:22:29;31.77;;;19.30;;
82940;SDS011;72715;48.396;-4.472;2024-01-10T08:24:55;22.80;;;16.83;;
82940;SDS011;72715;48.396;-4.472;2024-01-10T08:27:21;29.50;;;16.10;;
82940;SDS011;72715;48.396;-4.472;2024-01-10T08:29:46;22.63;;;13.10;;
82940;SDS011;72715;48.396;-4.472;2024-01-10T08:32:12;26.05;;;16.42;;
82940;SDS011;72715;48.396;-4.472;2024-01-10T08:34:37;23.77;;;14.93;;
82940;SDS011;72715;48.396;-4.472;2024-01-10T08:37:03;31.45;;;17.35;;
82940;SDS011;72715;48.396;-4.472;2024-01-10T08:39:28;24.08;;;16.02;;
82940;SDS011;72715;48.396;-4.472;2024-01-10T08:41:55;26.17;;;17.77;;
82940;SDS011;72715;48.396;-4.472;2024-01-10T08:44:21;23.65;;;15.73;;
82940;SDS011;72715;48.396;-4.472;2024-01-10T08:46:47;37.40;;;19.05;;
82940;SDS011;72715;48.396;-4.472;2024-01-10T08:49:13;27.75;;;18.50;;
82940;SDS011;72715;48.396;-4.472;2024-01-10T08:51:38;33.78;;;20.00;;
82940;SDS011;72715;48.396;-4.472;2024-01-10T08:54:06;26.73;;;17.85;;
82940;SDS011;72715;48.396;-4.472;2024-01-10T08:56:31;28.17;;;16.23;;
82940;SDS011;72715;48.396;-4.472;2024-01-10T08:58:56;25.83;;;17.42;;
82940;SDS011;72715;48.396;-4.472;2024-01-10T09:01:22;26.77;;;14.55;;
82940;SDS011;72715;48.396;-4.472;2024-01-10T09:03:47;21.95;;;16.73;;
82940;SDS011;72715;48.396;-4.472;2024-01-10T09:06:13;31.23;;;17.65;;
82940;SDS011;72715;48.396;-4.472;2024-01-10T09:08:39;31.42;;;17.88;;
82940;SDS011;72715;48.396;-4.472;2024-01-10T09:11:06;18.27;;;13.00;;
82940;SDS011;72715;48.396;-4.472;2024-01-10T09:13:31;34.75;;;15.90;;
82940;SDS011;72715;48.396;-4.472;2024-01-10T09:15:56;28.45;;;18.35;;
82940;SDS011;72715;48.396;-4.472;2024-01-10T09:18:22;15.88;;;11.52;;
82940;SDS011;72715;48.396;-4.472;2024-01-10T09:20:47;22.33;;;13.73;;
82940;SDS011;72715;48.396;-4.472;2024-01-10T09:23:13;25.45;;;17.23;;
82940;SDS011;72715;48.396;-4.472;2024-01-10T09:25:39;25.70;;;13.93;;
82940;SDS011;72715;48.396;-4.472;2024-01-10T09:28:04;24.70;;;13.68;;
82940;SDS011;72715;48.396;-4.472;2024-01-10T09:30:30;18.77;;;12.27;;
82940;SDS011;72715;48.396;-4.472;2024-01-10T09:32:55;29.40;;;15.98;;
82940;SDS011;72715;48.396;-4.472;2024-01-10T09:35:21;24.85;;;14.98;;
82940;SDS011;72715;48.396;-4.472;2024-01-10T09:37:47;21.40;;;14.50;;
82940;SDS011;72715;48.396;-4.472;2024-01-10T09:40:13;19.25;;;12.02;;
82940;SDS011;72715;48.396;-4.472;2024-01-10T09:42:39;25.42;;;13.10;;
82940;SDS011;72715;48.396;-4.472;2024-01-10T09:45:05;23.83;;;15.55;;
82940;SDS011;72715;48.396;-4.472;2024-01-10T09:47:31;22.08;;;12.85;;
82940;SDS011;72715;48.396;-4.472;2024-01-10T09:49:57;18.55;;;11.07;;
82940;SDS011;72715;48.396;-4.472;2024-01-10T09:52:27;18.88;;;13.38;;
82940;SDS011;72715;48.396;-4.472;2024-01-10T09:54:55;18.65;;;12.50;;
82940;SDS011;72715;48.396;-4.472;2024-01-10T09:57:22;20.33;;;11.45;;
82940;SDS011;72715;48.396;-4.472;2024-01-10T09:59:49;23.70;;;16.33;;
82940;SDS011;72715;48.396;-4.472;2024-01-10T10:02:16;23.45;;;11.05;;
82940;SDS011;72715;48.396;-4.472;2024-01-10T10:04:44;23.02;;;11.70;;
82940;SDS011;72715;48.396;-4.472;2024-01-10T10:07:19;16.00;;;9.80;;
82940;SDS011;72715;48.396;-4.472;2024-01-10T10:09:44;20.30;;;10.68;;
82940;SDS011;72715;48.396;-4.472;2024-01-10T10:12:09;16.52;;;10.95;;
82940;SDS011;72715;48.396;-4.472;2024-01-10T10:14:35;15.30;;;10.10;;
82940;SDS011;72715;48.396;-4.472;2024-01-10T10:17:13;20.55;;;11.80;;
82940;SDS011;72715;48.396;-4.472;2024-01-10T10:19:42;18.83;;;12.02;;
82940;SDS011;72715;48.396;-4.472;2024-01-10T10:22:07;13.80;;;10.32;;
82940;SDS011;72715;48.396;-4.472;2024-01-10T10:24:34;16.40;;;9.75;;
82940;SDS011;72715;48.396;-4.472;2024-01-10T10:26:59;14.18;;;6.53;;
82940;SDS011;72715;48.396;-4.472;2024-01-10T10:29:25;11.63;;;9.38;;
82940;SDS011;72715;48.396;-4.472;2024-01-10T10:31:50;19.80;;;11.25;;
82940;SDS011;72715;48.396;-4.472;2024-01-10T10:34:20;13.90;;;9.23;;
82940;SDS011;72715;48.396;-4.472;2024-01-10T10:36:46;16.85;;;11.63;;
82940;SDS011;72715;48.396;-4.472;2024-01-10T10:39:15;13.73;;;8.23;;
82940;SDS011;72715;48.396;-4.472;2024-01-10T10:41:41;17.85;;;11.18;;
82940;SDS011;72715;48.396;-4.472;2024-01-10T10:44:07;15.27;;;9.45;;
82940;SDS011;72715;48.396;-4.472;2024-01-10T10:46:34;15.65;;;9.13;;
82940;SDS011;72715;48.396;-4.472;2024-01-10T10:49:00;16.40;;;10.82;;
82940;SDS011;72715;48.396;-4.472;2024-01-10T10:51:32;12.35;;;9.68;;
82940;SDS011;72715;48.396;-4.472;2024-01-10T10:54:01;14.15;;;7.45;;
82940;SDS011;72715;48.396;-4.472;2024-01-10T10:56:29;16.02;;;11.50;;
82940;SDS011;72715;48.396;-4.472;2024-01-10T10:58:58;13.50;;;8.18;;
82940;SDS011;72715;48.396;-4.472;2024-01-10T11:01:25;9.43;;;7.90;;
82940;SDS011;72715;48.396;-4.472;2024-01-10T11:03:52;14.68;;;8.75;;
82940;SDS011;72715;48.396;-4.472;2024-01-10T11:06:17;13.13;;;9.40;;
82940;SDS011;72715;48.396;-4.472;2024-01-10T11:08:44;11.73;;;9.43;;
82940;SDS011;72715;48.396;-4.472;2024-01-10T11:11:22;12.30;;;8.60;;
82940;SDS011;72715;48.396;-4.472;2024-01-10T11:24:18;20.75;;;10.82;;
82940;SDS011;72715;48.396;-4.472;2024-01-10T11:26:45;24.25;;;12.15;;
82940;SDS011;72715;48.396;-4.472;2024-01-10T11:29:10;15.68;;;11.73;;
82940;SDS011;72715;48.396;-4.472;2024-01-10T11:31:36;21.10;;;13.40;;
82940;SDS011;72715;48.396;-4.472;2024-01-10T11:34:03;16.95;;;11.63;;
82940;SDS011;72715;48.396;-4.472;2024-01-10T11:36:29;21.10;;;12.93;;
82940;SDS011;72715;48.396;-4.472;2024-01-10T11:38:58;20.40;;;13.10;;
82940;SDS011;72715;48.396;-4.472;2024-01-10T11:46:41;19.17;;;14.73;;
82940;SDS011;72715;48.396;-4.472;2024-01-10T11:49:10;16.67;;;11.30;;
82940;SDS011;72715;48.396;-4.472;2024-01-10T11:51:41;20.95;;;14.23;;
82940;SDS011;72715;48.396;-4.472;2024-01-10T11:54:07;15.43;;;11.55;;
82940;SDS011;72715;48.396;-4.472;2024-01-10T11:56:39;33.08;;;12.90;;
82940;SDS011;72715;48.396;-4.472;2024-01-10T11:59:06;21.55;;;12.73;;
82940;SDS011;72715;48.396;-4.472;2024-01-10T12:01:39;20.52;;;12.13;;
82940;SDS011;72715;48.396;-4.472;2024-01-10T12:04:06;21.70;;;12.05;;
82940;SDS011;72715;48.396;-4.472;2024-01-10T12:06:32;26.00;;;15.65;;
82940;SDS011;72715;48.396;-4.472;2024-01-10T12:08:59;17.75;;;12.70;;
82940;SDS011;72715;48.396;-4.472;2024-01-10T12:11:24;22.90;;;15.00;;
82940;SDS011;72715;48.396;-4.472;2024-01-10T12:13:49;26.85;;;14.43;;
82940;SDS011;72715;48.396;-4.472;2024-01-10T12:16:15;18.48;;;13.80;;
82940;SDS011;72715;48.396;-4.472;2024-01-10T12:18:44;24.13;;;14.93;;
82940;SDS011;72715;48.396;-4.472;2024-01-10T12:21:10;20.05;;;14.07;;
82940;SDS011;72715;48.396;-4.472;2024-01-10T12:23:37;26.25;;;15.65;;
82940;SDS011;72715;48.396;-4.472;2024-01-10T12:26:04;26.02;;;15.68;;
82940;SDS011;72715;48.396;-4.472;2024-01-10T12:28:32;23.25;;;16.00;;
82940;SDS011;72715;48.396;-4.472;2024-01-10T12:30:58;26.52;;;15.75;;
82940;SDS011;72715;48.396;-4.472;2024-01-10T12:33:24;23.00;;;14.38;;
82940;SDS011;72715;48.396;-4.472;2024-01-10T12:36:09;26.05;;;15.55;;
82940;SDS011;72715;48.396;-4.472;2024-01-10T12:38:38;22.42;;;15.85;;
82940;SDS011;72715;48.396;-4.472;2024-01-10T12:41:04;26.73;;;15.73;;
82940;SDS011;72715;48.396;-4.472;2024-01-10T12:43:30;21.52;;;15.27;;
82940;SDS011;72715;48.396;-4.472;2024-01-10T12:46:03;25.17;;;17.58;;
82940;SDS011;72715;48.396;-4.472;2024-01-10T12:48:39;23.25;;;14.35;;
82940;SDS011;72715;48.396;-4.472;2024-01-10T12:51:09;22.52;;;15.75;;
82940;SDS011;72715;48.396;-4.472;2024-01-10T12:53:41;23.27;;;15.77;;
82940;SDS011;72715;48.396;-4.472;2024-01-10T12:56:08;25.85;;;16.10;;
82940;SDS011;72715;48.396;-4.472;2024-01-10T12:58:37;24.00;;;17.13;;
82940;SDS011;72715;48.396;-4.472;2024-01-10T13:01:02;24.75;;;18.25;;
82940;SDS011;72715;48.396;-4.472;2024-01-10T13:03:30;26.50;;;15.27;;
82940;SDS011;72715;48.396;-4.472;2024-01-10T13:05:56;27.13;;;17.98;;
82940;SDS011;72715;48.396;-4.472;2024-01-10T13:08:21;26.95;;;16.15;;
82940;SDS011;72715;48.396;-4.472;2024-01-10T13:10:47;25.38;;;14.55;;
82940;SDS011;72715;48.396;-4.472;2024-01-10T13:13:13;28.02;;;15.77;;
82940;SDS011;72715;48.396;-4.472;2024-01-10T13:15:40;29.45;;;17.00;;
82940;SDS011;72715;48.396;-4.472;2024-01-10T13:18:05;23.80;;;17.13;;
82940;SDS011;72715;48.396;-4.472;2024-01-10T13:20:32;23.45;;;16.67;;
82940;SDS011;72715;48.396;-4.472;2024-01-10T13:22:57;32.03;;;18.13;;
82940;SDS011;72715;48.396;-4.472;2024-01-10T13:25:22;25.92;;;17.05;;
82940;SDS011;72715;48.396;-4.472;2024-01-10T13:27:51;22.75;;;15.65;;
82940;SDS011;72715;48.396;-4.472;2024-01-10T13:30:17;78.32;;;21.65;;
82940;SDS011;72715;48.396;-4.472;2024-01-10T13:32:43;23.95;;;16.17;;
82940;SDS011;72715;48.396;-4.472;2024-01-10T13:35:09;28.23;;;18.83;;
82940;SDS011;72715;48.396;-4.472;2024-01-10T13:37:35;23.20;;;16.00;;
82940;SDS011;72715;48.396;-4.472;2024-01-10T13:40:00;30.02;;;19.65;;
82940;SDS011;72715;48.396;-4.472;2024-01-10T13:42:29;30.77;;;20.45;;
82940;SDS011;72715;48.396;-4.472;2024-01-10T13:44:55;24.90;;;18.73;;
82940;SDS011;72715;48.396;-4.472;2024-01-10T13:47:20;29.85;;;17.27;;
82940;SDS011;72715;48.396;-4.472;2024-01-10T13:49:46;36.70;;;19.23;;
82940;SDS011;72715;48.396;-4.472;2024-01-10T13:52:12;29.65;;;17.90;;
82940;SDS011;72715;48.396;-4.472;2024-01-10T13:54:37;27.17;;;18.33;;
82940;SDS011;72715;48.396;-4.472;2024-01-10T13:57:03;26.50;;;17.10;;
82940;SDS011;72715;48.396;-4.472;2024-01-10T13:59:28;28.02;;;16.85;;
82940;SDS011;72715;48.396;-4.472;2024-01-10T14:01:54;27.73;;;17.45;;
82940;SDS011;72715;48.396;-4.472;2024-01-10T14:04:20;28.77;;;19.92;;
82940;SDS011;72715;48.396;-4.472;2024-01-10T14:06:45;47.55;;;22.00;;
82940;SDS011;72715;48.396;-4.472;2024-01-10T14:09:10;23.55;;;16.08;;
82940;SDS011;72715;48.396;-4.472;2024-01-10T14:11:36;20.42;;;14.45;;
82940;SDS011;72715;48.396;-4.472;2024-01-10T14:14:01;30.48;;;18.75;;
82940;SDS011;72715;48.396;-4.472;2024-01-10T14:16:27;34.72;;;22.13;;
82940;SDS011;72715;48.396;-4.472;2024-01-10T14:18:53;27.65;;;19.33;;